createdAt,value
2022-12-28T00:01:47.959Z,100595.08
2022-12-28T00:04:17.831Z,100592.52
2022-12-28T00:06:47.366Z,100590.52
2022-12-28T00:09:16.139Z,100598.49
2022-12-28T00:11:44.976Z,100604.41
2022-12-28T00:14:13.561Z,100599.64
2022-12-28T00:16:42.381Z,100617.59
2022-12-28T00:19:14.235Z,100621.30
2022-12-28T00:21:43.468Z,100617.23
2022-12-28T00:24:17.538Z,100615.53
2022-12-28T00:26:46.923Z,100609.76
2022-12-28T00:29:16.178Z,100616.17
2022-12-28T00:31:48.139Z,100614.31
2022-12-28T00:34:17.037Z,100621.79
2022-12-28T00:37:09.696Z,100621.44
2022-12-28T00:39:17.568Z,100620.37
2022-12-28T00:41:46.605Z,100625.93
2022-12-28T00:44:15.985Z,100623.72
2022-12-28T00:46:45.318Z,100633.34
2022-12-28T00:49:16.875Z,100630.49
2022-12-28T00:51:45.644Z,100631.84
2022-12-28T00:54:18.161Z,100630.42
2022-12-28T00:56:46.979Z,100638.33
2022-12-28T00:59:17.254Z,100639.89
2022-12-28T01:01:46.334Z,100636.19
2022-12-28T01:04:15.979Z,100641.39
2022-12-28T01:06:45.329Z,100639.69
2022-12-28T01:09:14.504Z,100643.74
2022-12-28T01:11:44.397Z,100637.55
2022-12-28T01:14:14.658Z,100644.81
2022-12-28T01:16:43.574Z,100639.89
2022-12-28T01:19:15.482Z,100640.11
2022-12-28T01:21:44.315Z,100631.34
2022-12-28T01:24:14.803Z,100636.26
2022-12-28T01:26:44.296Z,100645.16
2022-12-28T01:29:12.964Z,100637.48
2022-12-28T01:31:41.771Z,100645.38
2022-12-28T01:34:11.441Z,100650.94
2022-12-28T01:36:40.378Z,100652.79
2022-12-28T01:39:10.771Z,100649.44
2022-12-28T01:41:42.040Z,100652.30
2022-12-28T01:44:17.267Z,100649.80
2022-12-28T01:47:03.276Z,100651.30
2022-12-28T01:49:46.981Z,100649.44
2022-12-28T01:52:38.086Z,100642.67
2022-12-28T01:55:17.605Z,100639.61
2022-12-28T01:57:54.100Z,100639.97
2022-12-28T02:00:26.656Z,100651.01
2022-12-28T02:03:07.838Z,100647.45
2022-12-28T02:05:46.273Z,100647.52
2022-12-28T02:08:41.601Z,100642.25
2022-12-28T02:11:13.835Z,100640.39
2022-12-28T02:13:44.792Z,100645.31
2022-12-28T02:16:14.079Z,100642.11
2022-12-28T02:18:44.794Z,100650.58
2022-12-28T02:21:39.975Z,100654.64
2022-12-28T02:24:42.603Z,100648.23
2022-12-28T02:27:22.592Z,100640.25
2022-12-28T02:30:01.591Z,100647.02
2022-12-28T02:33:05.194Z,100650.22
2022-12-28T02:35:45.599Z,100660.05
2022-12-28T02:38:28.428Z,100654.35
2022-12-28T02:41:21.341Z,100655.35
2022-12-28T02:43:50.654Z,100665.68
2022-12-28T02:46:46.977Z,100668.39
2022-12-28T02:49:45.105Z,100663.33
2022-12-28T02:52:37.022Z,100671.30
2022-12-28T02:55:53.618Z,100674.02
2022-12-28T02:58:53.722Z,100672.16
2022-12-28T03:01:46.142Z,100680.78
2022-12-28T03:04:42.104Z,100681.84
2022-12-28T03:07:51.164Z,100691.18
2022-12-28T03:10:43.725Z,100693.39
2022-12-28T03:13:41.129Z,100689.62
2022-12-28T03:16:24.189Z,100694.53
2022-12-28T03:19:17.026Z,100696.23
2022-12-28T03:22:05.026Z,100691.47
2022-12-28T03:24:52.912Z,100696.02
2022-12-28T03:27:42.086Z,100697.52
2022-12-28T03:30:34.626Z,100702.44
2022-12-28T03:33:06.099Z,100701.30
2022-12-28T03:36:10.311Z,100697.09
2022-12-28T03:38:53.772Z,100703.72
2022-12-28T03:41:39.345Z,100703.08
2022-12-28T03:44:14.971Z,100701.73
2022-12-28T03:46:55.711Z,100705.14
2022-12-28T03:49:24.290Z,100706.36
2022-12-28T03:51:53.149Z,100699.80
2022-12-28T03:54:23.143Z,100703.72
2022-12-28T03:56:52.527Z,100709.28
2022-12-28T03:59:22.831Z,100707.28
2022-12-28T04:01:53.829Z,100708.78
2022-12-28T04:04:22.791Z,100713.84
2022-12-28T04:06:51.784Z,100718.53
2022-12-28T04:09:22.827Z,100718.53
2022-12-28T04:11:51.947Z,100719.39
2022-12-28T04:14:22.651Z,100721.25
2022-12-28T04:16:55.568Z,100721.39
2022-12-28T04:19:24.430Z,100718.83
2022-12-28T04:21:53.490Z,100716.61
2022-12-28T04:24:22.377Z,100726.45
2022-12-28T04:26:51.361Z,100734.78
2022-12-28T04:29:21.526Z,100737.84
2022-12-28T04:31:52.582Z,100731.94
2022-12-28T04:34:23.017Z,100736.42
2022-12-28T04:36:57.006Z,100735.78
2022-12-28T04:39:26.216Z,100732.79
2022-12-28T04:41:55.442Z,100733.64
2022-12-28T04:44:24.729Z,100746.55
2022-12-28T04:46:53.570Z,100743.84
2022-12-28T04:49:22.792Z,100751.81
2022-12-28T04:51:51.812Z,100750.35
2022-12-28T04:54:21.104Z,100752.45
2022-12-28T04:56:50.097Z,100752.38
2022-12-28T04:59:19.199Z,100756.80
2022-12-28T05:01:48.661Z,100751.81
2022-12-28T05:04:17.666Z,100757.01
2022-12-28T05:06:46.271Z,100758.36
2022-12-28T05:09:14.991Z,100759.86
2022-12-28T05:11:44.575Z,100762.70
2022-12-28T05:14:13.177Z,100754.87
2022-12-28T05:16:41.965Z,100760.42
2022-12-28T05:19:11.313Z,100763.91
2022-12-28T05:21:42.715Z,100768.82
2022-12-28T05:24:11.324Z,100760.48
2022-12-28T05:26:40.840Z,100771.59
2022-12-28T05:29:10.092Z,100778.86
2022-12-28T05:31:39.364Z,100772.09
2022-12-28T05:34:08.625Z,100772.59
2022-12-28T05:36:38.977Z,100791.03
2022-12-28T05:39:11.127Z,100789.33
2022-12-28T05:41:42.043Z,100802.50
2022-12-28T05:44:10.783Z,100799.66
2022-12-28T05:46:39.506Z,100799.30
2022-12-28T05:49:09.198Z,100797.45
2022-12-28T05:51:39.774Z,100807.28
2022-12-28T05:54:09.263Z,100807.77
2022-12-28T05:56:38.666Z,100811.55
2022-12-28T05:59:08.708Z,100821.52
2022-12-28T06:01:39.793Z,100823.10
2022-12-28T06:04:13.253Z,100823.81
2022-12-28T06:06:42.556Z,100831.02
2022-12-28T06:09:11.160Z,100828.67
2022-12-28T06:11:40.418Z,100823.13
2022-12-28T06:14:09.381Z,100832.02
2022-12-28T06:16:41.822Z,100838.56
2022-12-28T06:19:12.046Z,100833.30
2022-12-28T06:21:41.339Z,100842.68
2022-12-28T06:24:10.564Z,100857.21
2022-12-28T06:26:41.054Z,100856.13
2022-12-28T06:29:09.847Z,100850.00
2022-12-28T06:31:41.422Z,100860.47
2022-12-28T06:34:11.068Z,100854.83
2022-12-28T06:36:43.123Z,100861.73
2022-12-28T06:39:13.415Z,100871.20
2022-12-28T06:41:42.805Z,100878.61
2022-12-28T06:44:12.865Z,100874.91
2022-12-28T06:46:41.778Z,100884.24
2022-12-28T06:49:11.218Z,100887.31
2022-12-28T06:51:42.547Z,100889.16
2022-12-28T06:54:11.618Z,100892.09
2022-12-28T06:56:41.029Z,100898.72
2022-12-28T06:59:12.216Z,100900.06
2022-12-28T07:01:43.280Z,100898.44
2022-12-28T07:04:12.118Z,100901.15
2022-12-28T07:06:43.295Z,100904.80
2022-12-28T07:09:15.464Z,100898.39
2022-12-28T07:11:44.773Z,100905.02
2022-12-28T07:14:13.800Z,100909.72
2022-12-28T07:16:43.316Z,100907.23
2022-12-28T07:19:12.384Z,100912.88
2022-12-28T07:21:41.649Z,100908.04
2022-12-28T07:24:11.304Z,100910.83
2022-12-28T07:26:40.095Z,100912.19
2022-12-28T07:29:08.892Z,100914.26
2022-12-28T07:31:44.928Z,100917.69
2022-12-28T07:34:15.809Z,100918.18
2022-12-28T07:36:44.471Z,100912.77
2022-12-28T07:39:13.708Z,100914.84
2022-12-28T07:41:42.472Z,100910.36
2022-12-28T07:44:11.713Z,100921.81
2022-12-28T07:46:40.914Z,100915.76
2022-12-28T07:49:11.366Z,100917.25
2022-12-28T07:51:40.286Z,100925.45
2022-12-28T07:54:10.367Z,100933.89
2022-12-28T07:59:12.792Z,100932.25
2022-12-28T08:01:44.981Z,100937.89
2022-12-28T08:04:15.827Z,100929.43
2022-12-28T08:06:46.465Z,100932.67
2022-12-28T08:09:17.344Z,100940.61
2022-12-28T08:11:48.755Z,100939.86
2022-12-28T08:14:17.771Z,100937.58
2022-12-28T08:16:46.914Z,100951.84
2022-12-28T10:24:54.486Z,100989.60
2022-12-28T10:27:28.175Z,100994.59
2022-12-28T10:30:01.553Z,100999.73
2022-12-28T10:32:42.319Z,100993.31
2022-12-28T10:35:11.227Z,100992.45
2022-12-28T10:37:42.696Z,100993.17
2022-12-28T10:40:26.236Z,101002.02
2022-12-28T10:42:56.458Z,101006.59
2022-12-28T10:45:52.147Z,100996.52
2022-12-28T10:48:32.220Z,100994.59
2022-12-28T10:51:12.909Z,100994.23
2022-12-28T10:53:50.523Z,101003.59
2022-12-28T10:56:29.909Z,100999.81
2022-12-28T10:59:20.759Z,101007.66
2022-12-28T11:01:49.842Z,101003.73
2022-12-28T11:04:21.495Z,101001.16
2022-12-28T11:07:00.142Z,101004.30
2022-12-28T11:09:36.816Z,100999.58
2022-12-28T11:12:25.947Z,101010.00
2022-12-28T11:14:55.970Z,101006.48
2022-12-28T11:17:27.542Z,101008.38
2022-12-28T11:20:22.403Z,101004.86
2022-12-28T11:22:52.903Z,101005.78
2022-12-28T11:25:29.047Z,101020.97
2022-12-28T11:27:58.531Z,101029.65
2022-12-28T11:30:29.188Z,101019.94
2022-12-28T11:33:00.349Z,101013.94
2022-12-28T11:35:32.407Z,101025.64
2022-12-28T11:38:05.806Z,101019.50
2022-12-28T11:40:50.396Z,101021.62
2022-12-28T11:43:40.063Z,101016.84
2022-12-28T11:46:30.371Z,101032.11
2022-12-28T11:49:29.979Z,101033.68
2022-12-28T11:52:25.351Z,101040.31
2022-12-28T11:55:33.288Z,101035.40
2022-12-28T11:58:33.662Z,101035.17
2022-12-28T12:01:06.424Z,101041.31
2022-12-28T12:04:01.574Z,101041.17
2022-12-28T12:06:49.181Z,101045.33
2022-12-28T12:09:29.182Z,101043.92
2022-12-28T12:12:03.426Z,101051.27
2022-12-28T12:14:38.593Z,101050.14
2022-12-28T12:17:43.144Z,101040.30
2022-12-28T12:20:32.475Z,101052.49
2022-12-28T12:23:09.895Z,101054.20
2022-12-28T12:25:41.987Z,101053.71
2022-12-28T12:28:34.752Z,101058.00
2022-12-28T12:31:09.387Z,101071.63
2022-12-28T12:33:44.514Z,101069.92
2022-12-28T12:36:55.243Z,101064.50
2022-12-28T12:40:01.907Z,101065.22
2022-12-28T12:42:43.016Z,101062.50
2022-12-28T12:46:03.187Z,101065.49
2022-12-28T12:48:58.744Z,101067.70
2022-12-28T12:51:38.914Z,101073.27
2022-12-28T12:54:38.992Z,101080.67
2022-12-28T12:57:25.197Z,101083.52
2022-12-28T13:00:12.071Z,101088.95
2022-12-28T13:03:23.036Z,101093.51
2022-12-28T13:05:54.489Z,101096.58
2022-12-28T13:08:49.953Z,101091.43
2022-12-28T13:11:19.364Z,101091.20
2022-12-28T13:13:50.870Z,101096.05
2022-12-28T13:16:23.959Z,101101.83
2022-12-28T13:18:59.087Z,101096.18
2022-12-28T13:21:31.331Z,101102.37
2022-12-28T13:24:01.230Z,101106.16
2022-12-28T13:26:30.336Z,101103.45
2022-12-28T13:29:02.436Z,101114.29
2022-12-28T13:31:41.548Z,101114.66
2022-12-28T13:34:27.088Z,101110.23
2022-12-28T13:37:01.278Z,101116.91
2022-12-28T13:39:36.915Z,101114.20
2022-12-28T13:42:14.775Z,101110.72
2022-12-28T13:44:57.655Z,101110.72
2022-12-28T13:47:37.859Z,101101.73
2022-12-28T13:50:14.965Z,101107.38
2022-12-28T13:53:01.874Z,101110.45
2022-12-28T13:55:36.690Z,101107.33
2022-12-28T13:58:10.489Z,101109.55
2022-12-28T14:00:40.708Z,101103.18
2022-12-28T14:03:10.142Z,101107.74
2022-12-28T14:05:47.624Z,101103.45
2022-12-28T14:08:18.908Z,101111.09
2022-12-28T14:10:55.077Z,101118.72
2022-12-28T14:13:24.887Z,101114.66
2022-12-28T14:15:55.303Z,101125.13
2022-12-28T14:18:24.567Z,101128.34
2022-12-28T14:20:56.504Z,101120.20
2022-12-28T14:23:30.998Z,101125.77
2022-12-28T14:26:06.524Z,101126.26
2022-12-28T14:28:51.415Z,101124.68
2022-12-28T14:31:26.633Z,101122.96
2022-12-28T14:34:02.266Z,101120.38
2022-12-28T14:36:39.382Z,101117.31
2022-12-28T14:39:36.514Z,101122.23
2022-12-28T14:42:08.870Z,101124.81
2022-12-28T14:44:40.092Z,101121.87
2022-12-28T14:47:35.314Z,101113.84
2022-12-28T14:50:30.765Z,101107.42
2022-12-28T14:53:17.597Z,101105.71
2022-12-28T14:56:10.639Z,101116.45
2022-12-28T14:58:51.387Z,101117.86
2022-12-28T15:01:21.344Z,101117.77
2022-12-28T15:03:58.425Z,101114.33
2022-12-28T15:06:29.893Z,101121.87
2022-12-28T15:08:59.528Z,101126.70
2022-12-28T15:11:30.950Z,101128.45
2022-12-28T15:13:59.984Z,101132.78
2022-12-28T15:16:29.793Z,101126.27
2022-12-28T15:18:59.604Z,101126.38
2022-12-28T15:21:28.595Z,101122.31
2022-12-28T15:23:57.468Z,101119.02
2022-12-28T15:26:28.842Z,101120.50
2022-12-28T15:28:57.832Z,101120.63
2022-12-28T15:31:26.740Z,101120.99
2022-12-28T15:33:56.274Z,101120.86
2022-12-28T15:36:29.258Z,101121.72
2022-12-28T15:38:59.256Z,101123.93
2022-12-28T15:41:48.652Z,101121.72
2022-12-28T15:44:19.962Z,101120.27
2022-12-28T15:46:49.934Z,101123.14
2022-12-28T15:49:19.755Z,101122.08
2022-12-28T15:51:49.094Z,101125.19
2022-12-28T15:54:18.701Z,101126.80
2022-12-28T15:56:52.896Z,101126.59
2022-12-28T15:59:22.433Z,101126.25
2022-12-28T16:01:51.718Z,101129.35
2022-12-28T16:04:20.670Z,101125.68
2022-12-28T16:06:51.214Z,101117.45
2022-12-28T16:09:21.631Z,101121.16
2022-12-28T19:59:03.014Z,101080.91
2022-12-28T20:01:28.675Z,101075.38
2022-12-28T20:03:59.809Z,101081.77
2022-12-28T20:06:29.282Z,101084.47
2022-12-28T20:09:01.161Z,101078.94
2022-12-28T20:11:30.609Z,101080.91
2022-12-28T20:14:02.276Z,101082.86
2022-12-28T20:16:34.395Z,101085.07
2022-12-28T20:19:05.369Z,101083.34
2022-12-28T20:21:36.648Z,101082.48
2022-12-28T20:24:06.812Z,101080.39
2022-12-28T20:26:35.792Z,101077.93
2022-12-28T20:29:08.721Z,101073.39
2022-12-28T20:31:38.136Z,101076.33
2022-12-28T20:34:08.544Z,101082.96
2022-12-28T20:36:39.344Z,101082.96
2022-12-28T20:39:11.005Z,101093.28
2022-12-28T20:41:59.275Z,101098.55
2022-12-28T20:44:32.127Z,101097.57
2022-12-28T20:47:04.658Z,101089.47
2022-12-28T20:49:35.625Z,101092.29
2022-12-28T20:52:04.645Z,101096.34
2022-12-28T20:54:33.408Z,101093.77
2022-12-28T20:57:02.494Z,101095.13
2022-12-28T20:59:31.971Z,101083.95
2022-12-28T21:02:01.908Z,101081.61
2022-12-28T21:04:32.701Z,101084.31
2022-12-28T21:07:02.025Z,101076.70
2022-12-28T21:09:31.686Z,101064.66
2022-12-28T21:12:01.347Z,101065.39
2022-12-28T21:14:30.254Z,101073.25
2022-12-28T21:16:59.333Z,101064.29
2022-12-28T21:19:30.070Z,101074.35
2022-12-28T21:21:59.025Z,101076.06
2022-12-28T21:24:28.059Z,101068.23
2022-12-28T21:26:58.569Z,101067.48
2022-12-28T21:29:30.838Z,101065.16
2022-12-28T21:31:59.958Z,101064.30
2022-12-28T21:34:29.454Z,101071.91
2022-12-28T21:37:00.905Z,101064.42
2022-12-28T21:39:30.439Z,101063.93
2022-12-28T21:41:59.796Z,101055.95
2022-12-28T21:44:31.384Z,101058.03
2022-12-28T21:47:00.367Z,101046.23
2022-12-28T21:49:32.436Z,101054.70
2022-12-28T21:52:03.014Z,101052.86
2022-12-28T21:54:33.507Z,101069.45
2022-12-28T21:57:05.494Z,101055.68
2022-12-28T21:59:34.406Z,101057.03
2022-12-28T22:02:24.791Z,101061.09
2022-12-28T22:05:12.761Z,101057.89
2022-12-28T22:07:42.195Z,101063.66
2022-12-28T22:10:30.940Z,101057.27
2022-12-28T22:13:01.100Z,101059.97
2022-12-28T22:15:48.236Z,101048.43
2022-12-28T22:20:54.272Z,101045.73
2022-12-28T22:23:25.703Z,101047.94
2022-12-28T22:25:55.425Z,101047.08
2022-12-28T22:28:24.437Z,101039.33
2022-12-28T22:30:53.622Z,101033.44
2022-12-28T22:33:22.516Z,101030.50
2022-12-28T22:35:51.615Z,101023.61
2022-12-28T22:38:21.372Z,101013.91
2022-12-28T22:40:59.793Z,101011.70
2022-12-28T22:43:29.490Z,101005.19
2022-12-28T22:46:10.529Z,101009.47
2022-12-28T22:48:39.249Z,101014.62
2022-12-28T22:51:11.464Z,101015.48
2022-12-28T22:53:40.132Z,101012.16
2022-12-28T22:56:15.446Z,101011.17
2022-12-28T22:58:48.799Z,101006.62
2022-12-28T23:01:19.527Z,101002.93
2022-12-28T23:03:48.860Z,101004.02
2022-12-28T23:06:19.665Z,101004.62
2022-12-28T23:08:48.854Z,100999.58
2022-12-28T23:11:37.164Z,100997.73
2022-12-28T23:14:42.541Z,100995.89
2022-12-28T23:17:11.420Z,100992.06
2022-12-28T23:19:59.916Z,100989.00
2022-12-28T23:22:50.075Z,100990.35
2022-12-28T23:25:40.357Z,100987.02
2022-12-28T23:28:12.447Z,100996.72
2022-12-28T23:30:47.094Z,100989.96
2022-12-28T23:33:16.829Z,100984.29
2022-12-28T23:35:46.080Z,100991.41
2022-12-28T23:38:17.094Z,100998.05
2022-12-28T23:40:48.709Z,100998.41
2022-12-28T23:43:18.221Z,100999.63
2022-12-28T23:45:47.566Z,100990.66
2022-12-28T23:48:16.728Z,100992.38
2022-12-28T23:50:47.224Z,100998.14
2022-12-28T23:53:15.899Z,100993.10
2022-12-28T23:55:44.995Z,100990.76
2022-12-28T23:58:14.126Z,100986.83
